sensor_id;sensor_type;location;lat;lon;timestamp;P1;durP1;ratioP1;P2;durP2;ratioP2
59555;SDS011;45374;52.746;6.304;2023-03-01T00:04:20;33.45;;;17.90;;
59555;SDS011;45374;52.746;6.304;2023-03-01T00:06:46;29.15;;;16.95;;
59555;SDS011;45374;52.746;6.304;2023-03-01T00:09:13;31.23;;;16.55;;
59555;SDS011;45374;52.746;6.304;2023-03-01T00:11:39;32.40;;;16.35;;
59555;SDS011;45374;52.746;6.304;2023-03-01T00:14:04;30.58;;;16.75;;
59555;SDS011;45374;52.746;6.304;2023-03-01T00:16:32;36.63;;;19.92;;
59555;SDS011;45374;52.746;6.304;2023-03-01T00:18:59;37.30;;;20.30;;
59555;SDS011;45374;52.746;6.304;2023-03-01T00:21:25;41.15;;;20.50;;
59555;SDS011;45374;52.746;6.304;2023-03-01T00:23:51;32.33;;;17.13;;
59555;SDS011;45374;52.746;6.304;2023-03-01T00:26:17;44.42;;;22.02;;
59555;SDS011;45374;52.746;6.304;2023-03-01T00:28:44;37.72;;;21.23;;
59555;SDS011;45374;52.746;6.304;2023-03-01T00:31:15;37.20;;;20.08;;
59555;SDS011;45374;52.746;6.304;2023-03-01T00:33:43;35.05;;;17.38;;
59555;SDS011;45374;52.746;6.304;2023-03-01T00:36:10;33.28;;;16.88;;
59555;SDS011;45374;52.746;6.304;2023-03-01T00:38:37;31.00;;;15.35;;
59555;SDS011;45374;52.746;6.304;2023-03-01T00:44:28;29.08;;;15.88;;
59555;SDS011;45374;52.746;6.304;2023-03-01T00:46:54;31.50;;;15.80;;
59555;SDS011;45374;52.746;6.304;2023-03-01T00:49:20;31.80;;;18.25;;
59555;SDS011;45374;52.746;6.304;2023-03-01T00:51:45;31.60;;;18.35;;
59555;SDS011;45374;52.746;6.304;2023-03-01T00:54:11;35.30;;;19.30;;
59555;SDS011;45374;52.746;6.304;2023-03-01T00:56:36;29.42;;;15.60;;
59555;SDS011;45374;52.746;6.304;2023-03-01T00:59:02;34.00;;;17.83;;
59555;SDS011;45374;52.746;6.304;2023-03-01T01:01:28;37.15;;;19.17;;
59555;SDS011;45374;52.746;6.304;2023-03-01T01:03:56;32.58;;;16.77;;
59555;SDS011;45374;52.746;6.304;2023-03-01T01:06:27;31.15;;;16.15;;
59555;SDS011;45374;52.746;6.304;2023-03-01T01:08:55;38.50;;;20.33;;
59555;SDS011;45374;52.746;6.304;2023-03-01T01:11:22;36.95;;;18.95;;
59555;SDS011;45374;52.746;6.304;2023-03-01T01:13:48;38.97;;;18.92;;
59555;SDS011;45374;52.746;6.304;2023-03-01T01:16:15;39.30;;;20.55;;
59555;SDS011;45374;52.746;6.304;2023-03-01T01:18:41;42.88;;;21.15;;
59555;SDS011;45374;52.746;6.304;2023-03-01T01:21:09;32.80;;;17.13;;
59555;SDS011;45374;52.746;6.304;2023-03-01T01:23:36;36.13;;;17.90;;
59555;SDS011;45374;52.746;6.304;2023-03-01T01:26:04;35.08;;;18.30;;
59555;SDS011;45374;52.746;6.304;2023-03-01T01:28:34;31.35;;;16.38;;
59555;SDS011;45374;52.746;6.304;2023-03-01T01:31:01;40.28;;;20.35;;
59555;SDS011;45374;52.746;6.304;2023-03-01T01:33:27;39.88;;;19.55;;
59555;SDS011;45374;52.746;6.304;2023-03-01T01:35:53;42.05;;;21.13;;
59555;SDS011;45374;52.746;6.304;2023-03-01T01:38:19;37.28;;;19.80;;
59555;SDS011;45374;52.746;6.304;2023-03-01T01:40:46;37.75;;;20.23;;
59555;SDS011;45374;52.746;6.304;2023-03-01T01:43:22;43.55;;;19.75;;
59555;SDS011;45374;52.746;6.304;2023-03-01T01:45:50;41.30;;;20.75;;
59555;SDS011;45374;52.746;6.304;2023-03-01T01:48:21;40.15;;;19.55;;
59555;SDS011;45374;52.746;6.304;2023-03-01T01:50:51;38.10;;;20.87;;
59555;SDS011;45374;52.746;6.304;2023-03-01T01:53:21;41.92;;;20.55;;
59555;SDS011;45374;52.746;6.304;2023-03-01T01:55:49;42.28;;;20.73;;
59555;SDS011;45374;52.746;6.304;2023-03-01T01:58:19;44.60;;;21.27;;
59555;SDS011;45374;52.746;6.304;2023-03-01T02:00:46;42.80;;;21.67;;
59555;SDS011;45374;52.746;6.304;2023-03-01T02:03:14;39.53;;;21.30;;
59555;SDS011;45374;52.746;6.304;2023-03-01T02:09:26;68.57;;;22.00;;
59555;SDS011;45374;52.746;6.304;2023-03-01T02:11:52;104.85;;;24.13;;
59555;SDS011;45374;52.746;6.304;2023-03-01T02:14:18;99.55;;;24.27;;
59555;SDS011;45374;52.746;6.304;2023-03-01T02:16:44;177.63;;;27.42;;
59555;SDS011;45374;52.746;6.304;2023-03-01T02:19:13;167.20;;;26.95;;
59555;SDS011;45374;52.746;6.304;2023-03-01T02:21:53;104.22;;;24.27;;
59555;SDS011;45374;52.746;6.304;2023-03-01T02:24:37;125.95;;;26.73;;
59555;SDS011;45374;52.746;6.304;2023-03-01T02:27:15;92.60;;;26.65;;
59555;SDS011;45374;52.746;6.304;2023-03-01T02:29:42;90.47;;;26.88;;
59555;SDS011;45374;52.746;6.304;2023-03-01T02:32:09;96.30;;;27.25;;
59555;SDS011;45374;52.746;6.304;2023-03-01T02:34:37;158.98;;;29.73;;
59555;SDS011;45374;52.746;6.304;2023-03-01T02:37:06;164.48;;;29.02;;
59555;SDS011;45374;52.746;6.304;2023-03-01T02:39:41;94.65;;;26.23;;
59555;SDS011;45374;52.746;6.304;2023-03-01T02:42:12;79.70;;;26.05;;
59555;SDS011;45374;52.746;6.304;2023-03-01T02:44:40;166.70;;;27.02;;
59555;SDS011;45374;52.746;6.304;2023-03-01T02:47:06;153.32;;;27.05;;
59555;SDS011;45374;52.746;6.304;2023-03-01T02:49:32;152.05;;;25.40;;
59555;SDS011;45374;52.746;6.304;2023-03-01T02:55:09;99.35;;;25.67;;
59555;SDS011;45374;52.746;6.304;2023-03-01T02:57:38;58.08;;;23.52;;
59555;SDS011;45374;52.746;6.304;2023-03-01T03:00:08;70.45;;;24.55;;
59555;SDS011;45374;52.746;6.304;2023-03-01T03:05:44;68.07;;;23.25;;
59555;SDS011;45374;52.746;6.304;2023-03-01T03:08:10;52.15;;;22.90;;
59555;SDS011;45374;52.746;6.304;2023-03-01T03:10:40;66.75;;;22.13;;
59555;SDS011;45374;52.746;6.304;2023-03-01T03:13:07;50.72;;;22.35;;
59555;SDS011;45374;52.746;6.304;2023-03-01T03:15:38;47.92;;;21.38;;
59555;SDS011;45374;52.746;6.304;2023-03-01T03:18:06;42.72;;;21.10;;
59555;SDS011;45374;52.746;6.304;2023-03-01T03:20:37;42.00;;;21.15;;
59555;SDS011;45374;52.746;6.304;2023-03-01T03:23:05;38.13;;;20.75;;
59555;SDS011;45374;52.746;6.304;2023-03-01T03:25:31;41.30;;;20.90;;
59555;SDS011;45374;52.746;6.304;2023-03-01T03:27:57;42.90;;;22.30;;
59555;SDS011;45374;52.746;6.304;2023-03-01T03:30:30;126.28;;;23.33;;
59555;SDS011;45374;52.746;6.304;2023-03-01T03:32:57;155.75;;;24.45;;
59555;SDS011;45374;52.746;6.304;2023-03-01T03:35:25;81.00;;;22.30;;
59555;SDS011;45374;52.746;6.304;2023-03-01T03:37:55;43.00;;;21.90;;
59555;SDS011;45374;52.746;6.304;2023-03-01T03:40:29;43.55;;;22.52;;
59555;SDS011;45374;52.746;6.304;2023-03-01T03:42:58;40.58;;;21.05;;
59555;SDS011;45374;52.746;6.304;2023-03-01T03:45:24;42.22;;;22.42;;
59555;SDS011;45374;52.746;6.304;2023-03-01T03:47:49;53.78;;;22.52;;
59555;SDS011;45374;52.746;6.304;2023-03-01T03:50:16;57.92;;;22.13;;
59555;SDS011;45374;52.746;6.304;2023-03-01T03:52:42;56.05;;;23.55;;
59555;SDS011;45374;52.746;6.304;2023-03-01T03:55:08;43.10;;;22.38;;
59555;SDS011;45374;52.746;6.304;2023-03-01T03:57:42;44.65;;;21.15;;
59555;SDS011;45374;52.746;6.304;2023-03-01T04:00:09;53.70;;;22.27;;
59555;SDS011;45374;52.746;6.304;2023-03-01T04:02:43;57.22;;;22.15;;
59555;SDS011;45374;52.746;6.304;2023-03-01T04:05:11;62.25;;;21.85;;
59555;SDS011;45374;52.746;6.304;2023-03-01T04:07:39;47.63;;;20.60;;
59555;SDS011;45374;52.746;6.304;2023-03-01T04:10:06;63.78;;;22.20;;
59555;SDS011;45374;52.746;6.304;2023-03-01T04:12:34;42.50;;;20.90;;
59555;SDS011;45374;52.746;6.304;2023-03-01T04:15:00;77.93;;;23.27;;
59555;SDS011;45374;52.746;6.304;2023-03-01T04:17:37;109.65;;;23.60;;
59555;SDS011;45374;52.746;6.304;2023-03-01T04:20:04;82.05;;;23.88;;
59555;SDS011;45374;52.746;6.304;2023-03-01T04:22:30;75.70;;;24.27;;
59555;SDS011;45374;52.746;6.304;2023-03-01T04:24:57;88.88;;;23.67;;
59555;SDS011;45374;52.746;6.304;2023-03-01T04:27:23;47.50;;;23.48;;
59555;SDS011;45374;52.746;6.304;2023-03-01T04:29:48;42.28;;;21.83;;
59555;SDS011;45374;52.746;6.304;2023-03-01T04:32:14;43.17;;;21.55;;
59555;SDS011;45374;52.746;6.304;2023-03-01T04:34:41;44.30;;;22.50;;
59555;SDS011;45374;52.746;6.304;2023-03-01T04:37:06;44.72;;;21.88;;
59555;SDS011;45374;52.746;6.304;2023-03-01T04:39:33;48.10;;;20.85;;
59555;SDS011;45374;52.746;6.304;2023-03-01T04:42:10;185.52;;;26.25;;
59555;SDS011;45374;52.746;6.304;2023-03-01T04:44:42;266.50;;;31.53;;
59555;SDS011;45374;52.746;6.304;2023-03-01T04:47:08;122.20;;;26.45;;
59555;SDS011;45374;52.746;6.304;2023-03-01T04:49:34;118.00;;;23.85;;
59555;SDS011;45374;52.746;6.304;2023-03-01T04:51:59;90.55;;;23.73;;
59555;SDS011;45374;52.746;6.304;2023-03-01T04:54:36;88.65;;;22.75;;
59555;SDS011;45374;52.746;6.304;2023-03-01T04:57:02;66.57;;;22.65;;
59555;SDS011;45374;52.746;6.304;2023-03-01T04:59:28;91.82;;;23.05;;
59555;SDS011;45374;52.746;6.304;2023-03-01T05:01:54;92.32;;;22.63;;
59555;SDS011;45374;52.746;6.304;2023-03-01T05:04:21;74.78;;;24.75;;
59555;SDS011;45374;52.746;6.304;2023-03-01T05:06:47;194.32;;;28.75;;
59555;SDS011;45374;52.746;6.304;2023-03-01T05:09:13;169.60;;;26.27;;
59555;SDS011;45374;52.746;6.304;2023-03-01T05:11:39;260.42;;;31.77;;
59555;SDS011;45374;52.746;6.304;2023-03-01T05:14:05;183.70;;;25.50;;
59555;SDS011;45374;52.746;6.304;2023-03-01T05:16:31;193.55;;;27.33;;
59555;SDS011;45374;52.746;6.304;2023-03-01T05:18:58;95.18;;;22.75;;
59555;SDS011;45374;52.746;6.304;2023-03-01T05:21:24;40.63;;;20.60;;
59555;SDS011;45374;52.746;6.304;2023-03-01T05:23:50;39.35;;;19.45;;
59555;SDS011;45374;52.746;6.304;2023-03-01T05:26:17;38.10;;;19.58;;
59555;SDS011;45374;52.746;6.304;2023-03-01T05:28:46;43.97;;;21.50;;
59555;SDS011;45374;52.746;6.304;2023-03-01T05:31:12;42.33;;;21.10;;
59555;SDS011;45374;52.746;6.304;2023-03-01T05:33:39;41.15;;;20.83;;
59555;SDS011;45374;52.746;6.304;2023-03-01T05:36:06;37.95;;;19.65;;
59555;SDS011;45374;52.746;6.304;2023-03-01T05:38:33;45.13;;;22.05;;
59555;SDS011;45374;52.746;6.304;2023-03-01T05:40:59;44.05;;;21.58;;
59555;SDS011;45374;52.746;6.304;2023-03-01T05:43:25;41.15;;;20.85;;
59555;SDS011;45374;52.746;6.304;2023-03-01T05:45:50;41.13;;;20.38;;
59555;SDS011;45374;52.746;6.304;2023-03-01T05:48:16;42.30;;;20.42;;
59555;SDS011;45374;52.746;6.304;2023-03-01T05:50:44;39.53;;;20.27;;
59555;SDS011;45374;52.746;6.304;2023-03-01T05:53:16;38.92;;;20.33;;
59555;SDS011;45374;52.746;6.304;2023-03-01T05:55:44;35.47;;;18.58;;
59555;SDS011;45374;52.746;6.304;2023-03-01T05:58:12;33.63;;;18.23;;
59555;SDS011;45374;52.746;6.304;2023-03-01T06:00:41;35.30;;;19.38;;
59555;SDS011;45374;52.746;6.304;2023-03-01T06:03:09;42.08;;;20.95;;
59555;SDS011;45374;52.746;6.304;2023-03-01T06:05:36;39.30;;;20.23;;
59555;SDS011;45374;52.746;6.304;2023-03-01T06:08:02;37.95;;;19.63;;
59555;SDS011;45374;52.746;6.304;2023-03-01T06:10:28;38.10;;;20.05;;
59555;SDS011;45374;52.746;6.304;2023-03-01T06:12:54;43.33;;;20.92;;
59555;SDS011;45374;52.746;6.304;2023-03-01T06:15:20;39.17;;;19.13;;
59555;SDS011;45374;52.746;6.304;2023-03-01T06:17:46;43.90;;;20.83;;
59555;SDS011;45374;52.746;6.304;2023-03-01T06:20:16;41.75;;;20.70;;
59555;SDS011;45374;52.746;6.304;2023-03-01T06:22:46;40.20;;;20.30;;
59555;SDS011;45374;52.746;6.304;2023-03-01T06:25:14;41.60;;;20.27;;
59555;SDS011;45374;52.746;6.304;2023-03-01T06:27:42;36.55;;;18.80;;
59555;SDS011;45374;52.746;6.304;2023-03-01T06:30:09;35.50;;;18.45;;
59555;SDS011;45374;52.746;6.304;2023-03-01T06:32:37;32.50;;;16.95;;
59555;SDS011;45374;52.746;6.304;2023-03-01T06:35:06;34.05;;;18.10;;
59555;SDS011;45374;52.746;6.304;2023-03-01T06:37:32;33.28;;;17.77;;
59555;SDS011;45374;52.746;6.304;2023-03-01T06:39:58;34.17;;;18.60;;
59555;SDS011;45374;52.746;6.304;2023-03-01T06:42:24;34.95;;;18.17;;
59555;SDS011;45374;52.746;6.304;2023-03-01T06:44:49;36.33;;;18.77;;
59555;SDS011;45374;52.746;6.304;2023-03-01T06:47:15;36.47;;;18.27;;
59555;SDS011;45374;52.746;6.304;2023-03-01T06:49:40;39.17;;;18.98;;
59555;SDS011;45374;52.746;6.304;2023-03-01T06:52:06;37.13;;;19.23;;
59555;SDS011;45374;52.746;6.304;2023-03-01T06:54:32;40.45;;;20.63;;
59555;SDS011;45374;52.746;6.304;2023-03-01T06:56:57;39.55;;;20.27;;
59555;SDS011;45374;52.746;6.304;2023-03-01T06:59:23;38.13;;;19.58;;
59555;SDS011;45374;52.746;6.304;2023-03-01T07:01:48;40.25;;;20.38;;
59555;SDS011;45374;52.746;6.304;2023-03-01T07:04:14;41.50;;;21.20;;
59555;SDS011;45374;52.746;6.304;2023-03-01T07:06:40;42.00;;;20.40;;
59555;SDS011;45374;52.746;6.304;2023-03-01T07:09:05;42.58;;;21.17;;
59555;SDS011;45374;52.746;6.304;2023-03-01T07:11:31;40.78;;;20.27;;
59555;SDS011;45374;52.746;6.304;2023-03-01T07:13:56;39.55;;;20.48;;
59555;SDS011;45374;52.746;6.304;2023-03-01T07:16:23;46.30;;;20.05;;
59555;SDS011;45374;52.746;6.304;2023-03-01T07:18:49;56.42;;;21.85;;
59555;SDS011;45374;52.746;6.304;2023-03-01T07:21:14;47.95;;;21.05;;
59555;SDS011;45374;52.746;6.304;2023-03-01T07:23:41;40.38;;;20.33;;
59555;SDS011;45374;52.746;6.304;2023-03-01T07:26:07;39.83;;;19.77;;
59555;SDS011;45374;52.746;6.304;2023-03-01T07:28:32;37.63;;;19.50;;
59555;SDS011;45374;52.746;6.304;2023-03-01T07:31:04;41.05;;;20.45;;
59555;SDS011;45374;52.746;6.304;2023-03-01T07:33:31;41.15;;;20.20;;
59555;SDS011;45374;52.746;6.304;2023-03-01T07:36:00;37.42;;;20.25;;
59555;SDS011;45374;52.746;6.304;2023-03-01T07:38:27;40.03;;;20.52;;
59555;SDS011;45374;52.746;6.304;2023-03-01T07:40:54;38.88;;;20.45;;
59555;SDS011;45374;52.746;6.304;2023-03-01T07:43:23;39.03;;;20.05;;
59555;SDS011;45374;52.746;6.304;2023-03-01T07:45:49;43.33;;;21.48;;
59555;SDS011;45374;52.746;6.304;2023-03-01T07:48:15;40.97;;;20.70;;
59555;SDS011;45374;52.746;6.304;2023-03-01T07:50:41;41.97;;;21.15;;
59555;SDS011;45374;52.746;6.304;2023-03-01T07:53:07;38.90;;;20.90;;
59555;SDS011;45374;52.746;6.304;2023-03-01T07:55:33;44.08;;;22.23;;
59555;SDS011;45374;52.746;6.304;2023-03-01T07:57:58;41.70;;;21.00;;
59555;SDS011;45374;52.746;6.304;2023-03-01T08:00:24;43.50;;;21.60;;
59555;SDS011;45374;52.746;6.304;2023-03-01T08:02:50;40.22;;;21.90;;
59555;SDS011;45374;52.746;6.304;2023-03-01T08:05:15;42.30;;;22.17;;
59555;SDS011;45374;52.746;6.304;2023-03-01T08:07:41;41.58;;;22.27;;
59555;SDS011;45374;52.746;6.304;2023-03-01T08:10:07;50.20;;;23.98;;
59555;SDS011;45374;52.746;6.304;2023-03-01T08:12:33;47.13;;;23.80;;
59555;SDS011;45374;52.746;6.304;2023-03-01T08:14:59;44.35;;;23.65;;
59555;SDS011;45374;52.746;6.304;2023-03-01T08:17:24;45.45;;;23.88;;
59555;SDS011;45374;52.746;6.304;2023-03-01T08:23:17;49.80;;;24.25;;
59555;SDS011;45374;52.746;6.304;2023-03-01T08:25:42;49.85;;;24.90;;
59555;SDS011;45374;52.746;6.304;2023-03-01T08:28:08;56.20;;;26.77;;
59555;SDS011;45374;52.746;6.304;2023-03-01T08:30:34;55.28;;;26.38;;
59555;SDS011;45374;52.746;6.304;2023-03-01T08:32:59;54.70;;;26.15;;
59555;SDS011;45374;52.746;6.304;2023-03-01T08:35:25;53.80;;;25.55;;
59555;SDS011;45374;52.746;6.304;2023-03-01T08:41:31;62.30;;;27.92;;
59555;SDS011;45374;52.746;6.304;2023-03-01T08:43:57;64.90;;;29.65;;
59555;SDS011;45374;52.746;6.304;2023-03-01T08:46:29;63.72;;;30.20;;
59555;SDS011;45374;52.746;6.304;2023-03-01T08:49:09;64.57;;;29.95;;
59555;SDS011;45374;52.746;6.304;2023-03-01T08:51:38;63.72;;;31.92;;
59555;SDS011;45374;52.746;6.304;2023-03-01T08:54:05;64.32;;;33.15;;
59555;SDS011;45374;52.746;6.304;2023-03-01T08:56:35;65.22;;;33.05;;
59555;SDS011;45374;52.746;6.304;2023-03-01T08:59:01;66.47;;;32.90;;
59555;SDS011;45374;52.746;6.304;2023-03-01T09:01:27;69.45;;;31.83;;
59555;SDS011;45374;52.746;6.304;2023-03-01T09:03:53;66.70;;;30.83;;
59555;SDS011;45374;52.746;6.304;2023-03-01T09:06:19;62.00;;;31.27;;
59555;SDS011;45374;52.746;6.304;2023-03-01T09:08:46;57.75;;;28.95;;
59555;SDS011;45374;52.746;6.304;2023-03-01T09:11:14;60.40;;;29.38;;
59555;SDS011;45374;52.746;6.304;2023-03-01T09:13:45;52.08;;;27.20;;
59555;SDS011;45374;52.746;6.304;2023-03-01T09:16:12;49.70;;;25.67;;
59555;SDS011;45374;52.746;6.304;2023-03-01T09:18:39;43.83;;;21.80;;
59555;SDS011;45374;52.746;6.304;2023-03-01T09:21:06;40.63;;;20.27;;
59555;SDS011;45374;52.746;6.304;2023-03-01T09:23:38;37.25;;;19.23;;
59555;SDS011;45374;52.746;6.304;2023-03-01T09:26:09;38.50;;;19.58;;
59555;SDS011;45374;52.746;6.304;2023-03-01T09:28:36;32.80;;;17.67;;
59555;SDS011;45374;52.746;6.304;2023-03-01T09:31:03;29.60;;;16.30;;
59555;SDS011;45374;52.746;6.304;2023-03-01T09:33:29;33.42;;;17.13;;
59555;SDS011;45374;52.746;6.304;2023-03-01T09:36:03;29.90;;;17.60;;
59555;SDS011;45374;52.746;6.304;2023-03-01T09:38:31;28.83;;;15.93;;
59555;SDS011;45374;52.746;6.304;2023-03-01T09:40:58;22.80;;;14.23;;
59555;SDS011;45374;52.746;6.304;2023-03-01T09:43:42;23.15;;;13.73;;
59555;SDS011;45374;52.746;6.304;2023-03-01T09:46:12;27.83;;;13.70;;
59555;SDS011;45374;52.746;6.304;2023-03-01T09:48:42;21.08;;;12.43;;
59555;SDS011;45374;52.746;6.304;2023-03-01T09:51:15;21.23;;;11.82;;
59555;SDS011;45374;52.746;6.304;2023-03-01T09:53:47;17.33;;;10.70;;
59555;SDS011;45374;52.746;6.304;2023-03-01T09:56:20;15.85;;;10.05;;
59555;SDS011;45374;52.746;6.304;2023-03-01T10:01:59;17.73;;;10.38;;
59555;SDS011;45374;52.746;6.304;2023-03-01T10:09:42;15.10;;;9.15;;
59555;SDS011;45374;52.746;6.304;2023-03-01T10:12:11;15.50;;;8.65;;
59555;SDS011;45374;52.746;6.304;2023-03-01T10:15:00;14.05;;;7.57;;
59555;SDS011;45374;52.746;6.304;2023-03-01T10:17:36;13.15;;;7.22;;
59555;SDS011;45374;52.746;6.304;2023-03-01T10:20:17;12.60;;;7.30;;
59555;SDS011;45374;52.746;6.304;2023-03-01T10:22:50;14.07;;;7.40;;
59555;SDS011;45374;52.746;6.304;2023-03-01T10:25:27;11.13;;;6.50;;
59555;SDS011;45374;52.746;6.304;2023-03-01T10:31:33;10.85;;;6.53;;
59555;SDS011;45374;52.746;6.304;2023-03-01T10:34:28;10.55;;;5.45;;
59555;SDS011;45374;52.746;6.304;2023-03-01T10:36:56;13.65;;;6.88;;
59555;SDS011;45374;52.746;6.304;2023-03-01T10:39:25;10.20;;;6.50;;
59555;SDS011;45374;52.746;6.304;2023-03-01T10:41:53;8.95;;;5.60;;
59555;SDS011;45374;52.746;6.304;2023-03-01T10:47:02;9.60;;;5.63;;
59555;SDS011;45374;52.746;6.304;2023-03-01T10:49:28;10.35;;;6.00;;
59555;SDS011;45374;52.746;6.304;2023-03-01T10:51:53;9.00;;;5.35;;
59555;SDS011;45374;52.746;6.304;2023-03-01T10:56:53;8.68;;;5.55;;
59555;SDS011;45374;52.746;6.304;2023-03-01T10:59:34;10.18;;;6.00;;
59555;SDS011;45374;52.746;6.304;2023-03-01T11:07:46;11.02;;;6.53;;
59555;SDS011;45374;52.746;6.304;2023-03-01T11:10:20;11.95;;;6.18;;
59555;SDS011;45374;52.746;6.304;2023-03-01T11:12:47;11.32;;;6.45;;
59555;SDS011;45374;52.746;6.304;2023-03-01T11:15:20;9.60;;;6.20;;
59555;SDS011;45374;52.746;6.304;2023-03-01T11:17:53;9.77;;;6.15;;
59555;SDS011;45374;52.746;6.304;2023-03-01T11:20:24;9.88;;;6.32;;
59555;SDS011;45374;52.746;6.304;2023-03-01T11:22:55;9.05;;;5.85;;
59555;SDS011;45374;52.746;6.304;2023-03-01T11:25:26;9.95;;;6.57;;
59555;SDS011;45374;52.746;6.304;2023-03-01T11:27:58;11.15;;;6.82;;
59555;SDS011;45374;52.746;6.304;2023-03-01T11:30:27;10.00;;;6.47;;
59555;SDS011;45374;52.746;6.304;2023-03-01T11:35:34;10.18;;;6.57;;
59555;SDS011;45374;52.746;6.304;2023-03-01T11:43:36;12.65;;;7.72;;
59555;SDS011;45374;52.746;6.304;2023-03-01T11:46:49;13.35;;;7.55;;
59555;SDS011;45374;52.746;6.304;2023-03-01T11:51:46;10.50;;;6.65;;
59555;SDS011;45374;52.746;6.304;2023-03-01T11:57:01;11.65;;;7.32;;
59555;SDS011;45374;52.746;6.304;2023-03-01T12:10:44;14.90;;;9.20;;
59555;SDS011;45374;52.746;6.304;2023-03-01T12:22:17;15.10;;;8.63;;
59555;SDS011;45374;52.746;6.304;2023-03-01T12:30:50;12.77;;;7.97;;
59555;SDS011;45374;52.746;6.304;2023-03-01T12:43:59;13.68;;;7.57;;
59555;SDS011;45374;52.746;6.304;2023-03-01T12:49:19;12.13;;;6.97;;
59555;SDS011;45374;52.746;6.304;2023-03-01T12:52:18;11.50;;;7.15;;
59555;SDS011;45374;52.746;6.304;2023-03-01T12:54:54;14.02;;;8.27;;
59555;SDS011;45374;52.746;6.304;2023-03-01T12:57:26;13.30;;;8.38;;
59555;SDS011;45374;52.746;6.304;2023-03-01T13:02:36;10.90;;;6.90;;
59555;SDS011;45374;52.746;6.304;2023-03-01T13:10:43;12.82;;;8.02;;
59555;SDS011;45374;52.746;6.304;2023-03-01T13:13:18;13.25;;;7.82;;
59555;SDS011;45374;52.746;6.304;2023-03-01T13:15:52;15.38;;;8.77;;
59555;SDS011;45374;52.746;6.304;2023-03-01T13:36:10;13.23;;;8.00;;
59555;SDS011;45374;52.746;6.304;2023-03-01T13:39:00;12.93;;;7.70;;
59555;SDS011;45374;52.746;6.304;2023-03-01T13:49:48;13.73;;;8.10;;
59555;SDS011;45374;52.746;6.304;2023-03-01T13:55:37;11.77;;;6.95;;
59555;SDS011;45374;52.746;6.304;2023-03-01T14:01:03;11.75;;;8.00;;
59555;SDS011;45374;52.746;6.304;2023-03-01T14:03:31;11.85;;;7.53;;
59555;SDS011;45374;52.746;6.304;2023-03-01T14:08:29;12.82;;;7.95;;
59555;SDS011;45374;52.746;6.304;2023-03-01T14:11:02;10.98;;;7.18;;
59555;SDS011;45374;52.746;6.304;2023-03-01T14:19:06;13.23;;;8.27;;
59555;SDS011;45374;52.746;6.304;2023-03-01T14:21:35;13.52;;;8.23;;
59555;SDS011;45374;52.746;6.304;2023-03-01T14:24:01;12.75;;;7.93;;
59555;SDS011;45374;52.746;6.304;2023-03-01T14:26:27;11.85;;;7.78;;
59555;SDS011;45374;52.746;6.304;2023-03-01T14:28:52;12.85;;;7.97;;
59555;SDS011;45374;52.746;6.304;2023-03-01T14:31:37;13.63;;;8.13;;
59555;SDS011;45374;52.746;6.304;2023-03-01T14:34:04;12.43;;;7.82;;
59555;SDS011;45374;52.746;6.304;2023-03-01T14:36:31;12.90;;;7.88;;
59555;SDS011;45374;52.746;6.304;2023-03-01T14:38:59;12.88;;;7.85;;
59555;SDS011;45374;52.746;6.304;2023-03-01T14:41:30;15.50;;;8.77;;
59555;SDS011;45374;52.746;6.304;2023-03-01T14:46:34;13.82;;;8.02;;
59555;SDS011;45374;52.746;6.304;2023-03-01T14:49:12;14.65;;;8.82;;
59555;SDS011;45374;52.746;6.304;2023-03-01T14:51:41;14.55;;;9.10;;
59555;SDS011;45374;52.746;6.304;2023-03-01T14:54:22;14.57;;;8.77;;
59555;SDS011;45374;52.746;6.304;2023-03-01T14:57:02;16.40;;;9.63;;
59555;SDS011;45374;52.746;6.304;2023-03-01T14:59:28;15.93;;;9.70;;
59555;SDS011;45374;52.746;6.304;2023-03-01T15:01:55;15.25;;;9.38;;
59555;SDS011;45374;52.746;6.304;2023-03-01T15:04:22;16.60;;;9.20;;
59555;SDS011;45374;52.746;6.304;2023-03-01T15:06:52;15.07;;;9.10;;
59555;SDS011;45374;52.746;6.304;2023-03-01T15:09:20;15.23;;;9.70;;
59555;SDS011;45374;52.746;6.304;2023-03-01T15:11:46;16.65;;;9.38;;
59555;SDS011;45374;52.746;6.304;2023-03-01T15:14:28;14.93;;;9.25;;
59555;SDS011;45374;52.746;6.304;2023-03-01T15:17:15;17.27;;;9.57;;
59555;SDS011;45374;52.746;6.304;2023-03-01T15:19:53;16.38;;;9.57;;
59555;SDS011;45374;52.746;6.304;2023-03-01T15:22:19;17.17;;;10.00;;
59555;SDS011;45374;52.746;6.304;2023-03-01T15:24:49;18.70;;;10.80;;
59555;SDS011;45374;52.746;6.304;2023-03-01T15:27:16;17.50;;;10.50;;
59555;SDS011;45374;52.746;6.304;2023-03-01T15:29:52;15.80;;;9.30;;
59555;SDS011;45374;52.746;6.304;2023-03-01T15:35:32;15.85;;;9.30;;
59555;SDS011;45374;52.746;6.304;2023-03-01T15:40:59;15.07;;;8.63;;
59555;SDS011;45374;52.746;6.304;2023-03-01T15:44:29;15.23;;;9.30;;
59555;SDS011;45374;52.746;6.304;2023-03-01T15:46:32;16.77;;;8.98;;
59555;SDS011;45374;52.746;6.304;2023-03-01T15:49:17;14.55;;;9.27;;
59555;SDS011;45374;52.746;6.304;2023-03-01T15:52:00;16.83;;;9.50;;
59555;SDS011;45374;52.746;6.304;2023-03-01T15:54:26;16.65;;;9.68;;
59555;SDS011;45374;52.746;6.304;2023-03-01T15:56:52;15.07;;;9.10;;
59555;SDS011;45374;52.746;6.304;2023-03-01T15:59:18;17.00;;;8.70;;
59555;SDS011;45374;52.746;6.304;2023-03-01T16:01:44;15.63;;;9.27;;
59555;SDS011;45374;52.746;6.304;2023-03-01T16:04:11;16.35;;;9.52;;
59555;SDS011;45374;52.746;6.304;2023-03-01T16:06:45;13.90;;;9.20;;
59555;SDS011;45374;52.746;6.304;2023-03-01T16:09:21;14.75;;;8.98;;
59555;SDS011;45374;52.746;6.304;2023-03-01T16:11:48;14.93;;;8.95;;
59555;SDS011;45374;52.746;6.304;2023-03-01T16:14:14;14.07;;;8.52;;
59555;SDS011;45374;52.746;6.304;2023-03-01T16:16:41;14.23;;;8.65;;
59555;SDS011;45374;52.746;6.304;2023-03-01T16:19:07;14.27;;;9.15;;
59555;SDS011;45374;52.746;6.304;2023-03-01T16:21:32;15.48;;;8.05;;
59555;SDS011;45374;52.746;6.304;2023-03-01T16:23:58;14.20;;;9.05;;
59555;SDS011;45374;52.746;6.304;2023-03-01T16:26:24;14.55;;;8.80;;
59555;SDS011;45374;52.746;6.304;2023-03-01T16:28:49;15.50;;;8.85;;
59555;SDS011;45374;52.746;6.304;2023-03-01T16:31:18;15.10;;;8.82;;
59555;SDS011;45374;52.746;6.304;2023-03-01T16:33:44;16.02;;;9.13;;
59555;SDS011;45374;52.746;6.304;2023-03-01T16:36:14;15.15;;;9.27;;
59555;SDS011;45374;52.746;6.304;2023-03-01T16:38:42;17.42;;;9.55;;
59555;SDS011;45374;52.746;6.304;2023-03-01T16:41:11;14.80;;;9.10;;
59555;SDS011;45374;52.746;6.304;2023-03-01T16:43:39;15.57;;;8.52;;
59555;SDS011;45374;52.746;6.304;2023-03-01T16:46:22;14.02;;;9.00;;
59555;SDS011;45374;52.746;6.304;2023-03-01T16:48:52;14.85;;;9.02;;
59555;SDS011;45374;52.746;6.304;2023-03-01T16:51:19;16.20;;;9.80;;
59555;SDS011;45374;52.746;6.304;2023-03-01T16:53:45;15.93;;;9.20;;
59555;SDS011;45374;52.746;6.304;2023-03-01T16:56:12;17.27;;;9.85;;
59555;SDS011;45374;52.746;6.304;2023-03-01T16:58:38;17.05;;;10.25;;
59555;SDS011;45374;52.746;6.304;2023-03-01T17:01:09;16.38;;;9.80;;
59555;SDS011;45374;52.746;6.304;2023-03-01T17:03:37;15.52;;;9.32;;
59555;SDS011;45374;52.746;6.304;2023-03-01T17:06:04;17.38;;;9.70;;
59555;SDS011;45374;52.746;6.304;2023-03-01T17:08:32;15.68;;;9.43;;
59555;SDS011;45374;52.746;6.304;2023-03-01T17:11:05;17.48;;;9.70;;
59555;SDS011;45374;52.746;6.304;2023-03-01T17:13:36;16.20;;;9.85;;